Airfield :
LOGIN :

Register | Disclaimer

   EN    FR    IT 

 










Legend :    VFR   Marginal VFR   IFR   Intensive IFR   Very Intensive IFR
Visi :
Ceiling :
>= 8 km
>= 3000ft
5 to 8 km
1000 to 3000 ft
1500m to 5 km
500 to 1000 ft
800 to 1500m
200 to 500 ft
< 800m
< 200 ft
Symbols :   Thunderstorms  Fog  Heavy snow  Heavy precipitations  Wind > 20 kt
SIGMETs :     Misc.  Thunderstorms  Icing  Turbulence  Mountain Waves  Volcanic Ashes






- Airport Elevation : 436 ft
- IATA code : ANG


LFBU - Angoulême Brie Champniers

CURRENT METAR :
  • 011200Z AUTO 01010KT 9999 BKN018 OVC038 08/05 Q1022 NOSIG

EXPIRED METARs :
  • 011130Z AUTO 03010KT 9999 FEW018 OVC040 08/04 Q1022 NOSIG
  • 011100Z AUTO 01011KT 9999 FEW020 BKN040 08/05 Q1022 NOSIG
  • 011030Z AUTO 01010KT 9999 SCT021 08/05 Q1023 NOSIG
  • 011000Z AUTO 02008KT 9999 FEW012 08/05 Q1022 NOSIG
  • 010930Z AUTO 02008KT 9999 FEW015 07/05 Q1022 NOSIG

TAF TAF LFBU
Valid from the 01 at 12:00 until the 02 at 12:00 UTC


011100Z 0112/0212 05010KT 9999 BKN030
BECMG 0117/0119 CAVOK
BECMG 0202/0204 BKN015
TEMPO 0204/0208 BKN008



MET'MAP, your aeronautical weather chart ! - Copyright ORBIFLY December 2007 - Disclaimer

ORBIFLY MET'MAP TEAM :

Programming & Development : Alexandra Zaïnal
Original concept : Baudouin d'Aumeries
Technical & hardware support : Manuel Goepfert
Assistance : Marc-Olivier Méhu




SOURCES & CREDITS :

   NOAA